Thunder radar more information blitzortung!


Radar de pluja more information rain snow radar


Visita la nostra xarxa de llocs de meteo:

Template documentation
and downloads

And another site



No particular awareness of the weather is required.    There are no Weather-warnings

Pagina Historial Weather Underground text

Diari Resum January 19, 2016 Unitats:  Mètric    Imperial   Tant
« Previous Dia
SegĂźent Dia »
Diari Setmana Mensual Anual Personalitzada
  Maxima: Minima: Media:
Temperatura: 12.8 °C 6.6 °C 9.5 °C
Punt de rosada: 2.9 °C 0.3 °C 1.5 °C
Humitat: 66 % 51 % 58 %
Wind Speed: 14.8 km/h 0.0 km/h 5.3 km/h
RĂ fegues de vent: 14.8 km/h - -
Vent:- - South
Pression baro: 1018.8 hPa 1015.8 hPa -
Precipitacions: 0.0 mm    
Historical Graphs
 
 
Dades de taula per January 19, 2016
Temps Temperatura Punt de rosada Pression baro Vent Wind Speed RĂ fegues de vent Humitat Rainfall Rate (Hourly)
11:05 7.1 °C 0.5 °C 1018.8 hPa North 1.6 km/h 4.8 km/h 63 % 0.0 mm
11:10 7.9 °C 0.8 °C 1018.8 hPa NE 5.6 km/h 5.6 km/h 61 % 0.0 mm
11:15 7.9 °C 0.8 °C 1018.8 hPa NNE 3.2 km/h 9.7 km/h 61 % 0.0 mm
11:20 8.1 °C 1.0 °C 1018.8 hPa NE 8.0 km/h 9.7 km/h 61 % 0.0 mm
11:25 8.1 °C 1.0 °C 1018.8 hPa NE 3.2 km/h 9.7 km/h 61 % 0.0 mm
11:30 8.1 °C 1.0 °C 1018.8 hPa NE 8.0 km/h 9.7 km/h 61 % 0.0 mm
11:35 8.1 °C 1.0 °C 1018.8 hPa NE 3.2 km/h 9.7 km/h 61 % 0.0 mm
11:40 8.1 °C 1.0 °C 1018.8 hPa NE 1.6 km/h 4.8 km/h 61 % 0.0 mm
11:45 8.1 °C 1.0 °C 1018.8 hPa ENE 3.7 km/h 4.2 km/h 61 % 0.0 mm
11:50 8.1 °C 1.0 °C 1018.8 hPa ENE 4.2 km/h   61 % 0.0 mm
11:55 8.7 °C 1.1 °C 1018.8 hPa NNE 11.1 km/h 11.1 km/h 59 % 0.0 mm
12:00 8.7 °C 1.1 °C 1018.8 hPa NNE 9.3 km/h 9.3 km/h 59 % 0.0 mm
12:05 8.7 °C 1.1 °C 1018.8 hPa ENE 9.3 km/h 9.3 km/h 59 % 0.0 mm
12:10 8.6 °C 0.8 °C 1018.8 hPa West 5.6 km/h 5.6 km/h 58 % 0.0 mm
12:15 8.9 °C 1.1 °C 1018.8 hPa NNE 5.6 km/h 5.6 km/h 58 % 0.0 mm
12:20 9.1 °C 1.0 °C 1018.8 hPa NNE 7.4 km/h 7.4 km/h 57 % 0.0 mm
12:25 9.1 °C 1.0 °C 1018.8 hPa NNE 3.7 km/h 3.7 km/h 57 % 0.0 mm
12:30 9.5 °C 1.4 °C 1018.8 hPa NNE 3.7 km/h 3.7 km/h 57 % 0.0 mm
12:35 9.7 °C 1.6 °C 1018.8 hPa NE 5.6 km/h 5.6 km/h 57 % 0.0 mm
12:40 9.6 °C 1.5 °C 1018.8 hPa NNE 9.3 km/h 9.3 km/h 57 % 0.0 mm
12:45 9.4 °C 1.1 °C 1018.8 hPa ENE 9.7 km/h 9.7 km/h 56 % 0.0 mm
12:50 9.4 °C 1.1 °C 1018.8 hPa ENE 9.3 km/h 9.3 km/h 56 % 0.0 mm
12:55 9.0 °C 0.7 °C 1017.8 hPa NNE 7.4 km/h 7.4 km/h 56 % 0.0 mm
13:00 9.0 °C 0.7 °C 1017.8 hPa NE 7.4 km/h 7.4 km/h 56 % 0.0 mm
13:05 9.0 °C 0.7 °C 1017.8 hPa NNE 3.9 km/h 4.2 km/h 56 % 0.0 mm
13:10 9.0 °C 0.7 °C 1017.8 hPa East 7.2 km/h 7.2 km/h 56 % 0.0 mm
13:15 9.0 °C 0.7 °C 1017.8 hPa NW 3.9 km/h 3.9 km/h 56 % 0.0 mm
13:20 9.0 °C 0.7 °C 1017.8 hPa East 3.7 km/h 3.7 km/h 56 % 0.0 mm
13:25 9.0 °C 0.7 °C 1017.8 hPa ESE 14.8 km/h 14.8 km/h 56 % 0.0 mm
13:30 9.0 °C 0.7 °C 1017.8 hPa NE 6.9 km/h 6.9 km/h 56 % 0.0 mm
13:35 9.0 °C 0.7 °C 1017.8 hPa East 7.4 km/h 7.4 km/h 56 % 0.0 mm
13:40 9.0 °C 0.7 °C 1017.8 hPa ENE 5.8 km/h 5.8 km/h 56 % 0.0 mm
13:45 10.2 °C 1.6 °C 1017.8 hPa East 9.3 km/h 9.3 km/h 55 % 0.0 mm
13:50 10.1 °C 1.4 °C 1017.8 hPa ESE 9.3 km/h 9.3 km/h 55 % 0.0 mm
13:55 10.0 °C 1.4 °C 1017.8 hPa NNE 5.6 km/h 5.6 km/h 55 % 0.0 mm
14:00 10.2 °C 1.3 °C 1017.8 hPa SE 4.2 km/h 4.2 km/h 54 % 0.0 mm
14:05 10.2 °C 1.3 °C 1017.8 hPa ENE 5.6 km/h 5.6 km/h 54 % 0.0 mm
14:10 10.3 °C 1.4 °C 1016.8 hPa East 7.4 km/h 7.4 km/h 54 % 0.0 mm
14:15 10.4 °C 1.5 °C 1016.8 hPa East 5.6 km/h 5.6 km/h 54 % 0.0 mm
14:20 10.4 °C 1.5 °C 1016.8 hPa ENE 7.4 km/h 7.4 km/h 54 % 0.0 mm
14:25 10.6 °C 1.7 °C 1017.8 hPa NNW 3.7 km/h 3.7 km/h 54 % 0.0 mm
14:30 11.1 °C 2.1 °C 1017.8 hPa SW 7.4 km/h 7.4 km/h 54 % 0.0 mm
14:35 11.2 °C 1.9 °C 1017.8 hPa SW 11.1 km/h 11.1 km/h 53 % 0.0 mm
14:40 11.4 °C 2.2 °C 1017.8 hPa SSW 11.1 km/h 11.1 km/h 53 % 0.0 mm
14:45 11.8 °C 2.5 °C 1017.8 hPa SW 7.4 km/h 7.4 km/h 53 % 0.0 mm
14:50 11.7 °C 2.2 °C 1017.8 hPa WSW 11.1 km/h 11.1 km/h 52 % 0.0 mm
14:55 11.7 °C 2.2 °C 1017.8 hPa SSW 6.1 km/h 6.1 km/h 52 % 0.0 mm
15:00 11.9 °C 2.3 °C 1017.8 hPa SW 10.0 km/h 10.0 km/h 52 % 0.0 mm
15:05 11.8 °C 2.0 °C 1017.8 hPa SW 7.4 km/h 7.4 km/h 51 % 0.0 mm
15:20 12.6 °C 2.7 °C 1016.8 hPa SW 7.4 km/h 7.4 km/h 51 % 0.0 mm
15:25 12.8 °C 2.9 °C 1016.8 hPa SW 4.2 km/h 4.2 km/h 51 % 0.0 mm
15:30 12.7 °C 2.8 °C 1016.8 hPa SW 9.3 km/h 9.3 km/h 51 % 0.0 mm
15:35 12.6 °C 2.7 °C 1016.8 hPa SSW 9.3 km/h 9.3 km/h 51 % 0.0 mm
15:40 12.7 °C 2.8 °C 1015.8 hPa WSW 3.7 km/h 4.7 km/h 51 % 0.0 mm
15:45 12.5 °C 2.6 °C 1015.8 hPa WSW 9.3 km/h 9.3 km/h 51 % 0.0 mm
15:50 12.8 °C 2.9 °C 1015.8 hPa SSW 9.3 km/h 9.3 km/h 51 % 0.0 mm
15:55 12.7 °C 2.8 °C 1016.8 hPa SW 7.4 km/h 7.4 km/h 51 % 0.0 mm
16:00 12.5 °C 2.6 °C 1016.8 hPa WSW 7.4 km/h 7.4 km/h 51 % 0.0 mm
16:05 12.5 °C 2.6 °C 1016.8 hPa WSW 3.9 km/h 3.9 km/h 51 % 0.0 mm
16:10 12.5 °C 2.6 °C 1016.8 hPa SW 11.1 km/h 11.1 km/h 51 % 0.0 mm
16:15 12.4 °C 2.6 °C 1016.8 hPa WSW 10.3 km/h 10.3 km/h 51 % 0.0 mm
16:20 12.6 °C 2.7 °C 1016.8 hPa SW 7.4 km/h 7.4 km/h 51 % 0.0 mm
16:25 12.3 °C 2.4 °C 1017.8 hPa WSW 10.3 km/h 10.3 km/h 51 % 0.0 mm
16:30 12.0 °C 2.2 °C 1017.8 hPa SSW 14.8 km/h 14.8 km/h 51 % 0.0 mm
16:35 12.1 °C 2.3 °C 1017.8 hPa SSW 7.4 km/h 7.4 km/h 51 % 0.0 mm
16:40 12.2 °C 2.3 °C 1017.8 hPa WSW 4.7 km/h 4.7 km/h 51 % 0.0 mm
16:45 12.5 °C 2.6 °C 1017.8 hPa SW 13.0 km/h 13.0 km/h 51 % 0.0 mm
16:50 12.4 °C 2.6 °C 1017.8 hPa SW 9.3 km/h 9.3 km/h 51 % 0.0 mm
16:55 12.3 °C 2.4 °C 1017.8 hPa SSW 9.3 km/h 9.3 km/h 51 % 0.0 mm
17:00 12.1 °C 2.3 °C 1017.8 hPa SW 12.6 km/h 12.6 km/h 51 % 0.0 mm
17:05 12.0 °C 2.2 °C 1017.8 hPa SW 9.3 km/h 9.3 km/h 51 % 0.0 mm
17:10 11.7 °C 1.9 °C 1017.8 hPa SW 9.3 km/h 9.3 km/h 51 % 0.0 mm
17:15 11.6 °C 2.1 °C 1017.8 hPa WSW 9.3 km/h 9.3 km/h 52 % 0.0 mm
17:20 11.3 °C 1.8 °C 1017.8 hPa SW 11.1 km/h 11.1 km/h 52 % 0.0 mm
17:25 11.1 °C 1.6 °C 1017.8 hPa WSW 9.3 km/h 9.3 km/h 52 % 0.0 mm
17:30 10.9 °C 1.7 °C 1017.8 hPa WSW 7.4 km/h 7.4 km/h 53 % 0.0 mm
17:35 10.8 °C 1.6 °C 1017.8 hPa SW 9.3 km/h 9.3 km/h 53 % 0.0 mm
17:40 10.7 °C 1.5 °C 1017.8 hPa SW 10.3 km/h 10.3 km/h 53 % 0.0 mm
17:45 10.6 °C 1.7 °C 1017.8 hPa SSW 5.6 km/h 5.6 km/h 54 % 0.0 mm
17:50 10.4 °C 1.5 °C 1017.8 hPa WSW 3.7 km/h 4.2 km/h 54 % 0.0 mm
17:55 10.3 °C 1.4 °C 1017.8 hPa WSW 1.9 km/h 2.6 km/h 54 % 0.0 mm
18:00 10.2 °C 1.3 °C 1017.8 hPa WSW 3.9 km/h 3.9 km/h 54 % 0.0 mm
18:05 10.0 °C 1.1 °C 1017.8 hPa WSW 3.7 km/h 3.7 km/h 54 % 0.0 mm
18:10 9.8 °C 0.9 °C 1017.8 hPa WSW 1.9 km/h 2.3 km/h 54 % 0.0 mm
18:15 9.6 °C 1.0 °C 1017.8 hPa Calm     55 % 0.0 mm
18:20 9.5 °C 0.9 °C 1017.8 hPa Calm     55 % 0.0 mm
18:25 9.4 °C 0.8 °C 1017.8 hPa WSW 1.9 km/h 1.9 km/h 55 % 0.0 mm
18:30 9.3 °C 0.7 °C 1017.8 hPa SW 1.9 km/h   55 % 0.0 mm
18:35 9.1 °C 0.5 °C 1017.8 hPa Calm     55 % 0.0 mm
18:40 9.1 °C 0.5 °C 1017.8 hPa WSW 3.7 km/h 3.7 km/h 55 % 0.0 mm
18:45 9.0 °C 0.4 °C 1017.8 hPa SW 4.2 km/h 4.2 km/h 55 % 0.0 mm
18:50 8.6 °C 0.3 °C 1017.8 hPa WSW 5.6 km/h 5.6 km/h 56 % 0.0 mm
19:00 8.8 °C 1.0 °C 1017.8 hPa SW 7.4 km/h 7.4 km/h 58 % 0.0 mm
19:05 8.7 °C 0.9 °C 1017.8 hPa WSW 6.4 km/h 6.4 km/h 58 % 0.0 mm
19:10 8.7 °C 1.1 °C 1017.8 hPa SW 5.8 km/h 5.8 km/h 59 % 0.0 mm
19:15 8.6 °C 1.1 °C 1017.8 hPa SW 3.9 km/h 3.9 km/h 59 % 0.0 mm
19:20 8.6 °C 1.3 °C 1017.8 hPa SW 3.7 km/h 3.7 km/h 60 % 0.0 mm
19:25 8.6 °C 1.3 °C 1017.8 hPa SW 5.6 km/h 5.6 km/h 60 % 0.0 mm
19:30 8.5 °C 1.4 °C 1017.8 hPa SW 3.9 km/h 3.9 km/h 61 % 0.0 mm
19:35 8.5 °C 1.4 °C 1017.8 hPa SW 3.7 km/h 3.7 km/h 61 % 0.0 mm
19:40 8.5 °C 1.4 °C 1017.8 hPa WSW 4.2 km/h 4.2 km/h 61 % 0.0 mm
19:45 8.5 °C 1.4 °C 1017.8 hPa WSW 3.7 km/h 3.7 km/h 61 % 0.0 mm
19:51 8.5 °C 1.4 °C 1017.8 hPa SW 3.7 km/h 3.7 km/h 61 % 0.0 mm
19:56 8.4 °C 1.6 °C 1017.8 hPa SSW 5.6 km/h 5.6 km/h 62 % 0.0 mm
20:01 8.4 °C 1.8 °C 1017.8 hPa SW 7.4 km/h 7.4 km/h 63 % 0.0 mm
20:06 8.4 °C 1.8 °C 1017.8 hPa SSW 5.6 km/h 5.6 km/h 63 % 0.0 mm
20:11 8.4 °C 1.8 °C 1017.8 hPa SSW 5.0 km/h 5.0 km/h 63 % 0.0 mm
20:16 8.4 °C 2.0 °C 1017.8 hPa West 5.6 km/h 5.6 km/h 64 % 0.0 mm
20:21 8.5 °C 2.1 °C 1017.8 hPa SSW 5.6 km/h 5.6 km/h 64 % 0.0 mm
20:26 8.4 °C 2.0 °C 1017.8 hPa WSW 5.6 km/h 5.6 km/h 64 % 0.0 mm
20:31 8.4 °C 2.0 °C 1017.8 hPa WSW 3.7 km/h 3.7 km/h 64 % 0.0 mm
20:36 8.4 °C 2.0 °C 1017.8 hPa WSW 2.3 km/h 2.3 km/h 64 % 0.0 mm
20:41 8.5 °C 2.1 °C 1017.8 hPa Calm     64 % 0.0 mm
20:46 8.5 °C 2.1 °C 1017.8 hPa Calm     64 % 0.0 mm
20:51 8.5 °C 2.1 °C 1017.8 hPa Calm     64 % 0.0 mm
21:01 8.5 °C 2.1 °C 1017.8 hPa SW 1.9 km/h 2.3 km/h 64 % 0.0 mm
21:06 8.4 °C 2.0 °C 1017.8 hPa WNW 1.4 km/h   64 % 0.0 mm
21:11 8.4 °C 2.0 °C 1016.8 hPa Calm     64 % 0.0 mm
21:21 8.2 °C 1.8 °C 1016.8 hPa NW 1.9 km/h   64 % 0.0 mm
21:26 8.2 °C 1.8 °C 1016.8 hPa NE 1.4 km/h   64 % 0.0 mm
21:31 8.2 °C 1.8 °C 1016.8 hPa WNW 3.7 km/h 3.7 km/h 64 % 0.0 mm
21:36 8.1 °C 1.9 °C 1016.8 hPa Calm     65 % 0.0 mm
21:41 8.1 °C 1.7 °C 1017.8 hPa NW 2.3 km/h   64 % 0.0 mm
21:46 8.1 °C 1.9 °C 1017.8 hPa Calm     65 % 0.0 mm
21:51 8.0 °C 1.8 °C 1017.8 hPa Calm     65 % 0.0 mm
21:56 7.9 °C 1.7 °C 1017.8 hPa Calm     65 % 0.0 mm
22:01 7.8 °C 1.6 °C 1017.8 hPa Calm     65 % 0.0 mm
22:06 7.7 °C 1.6 °C 1017.8 hPa Calm     65 % 0.0 mm
22:11 7.6 °C 1.4 °C 1017.8 hPa Calm     65 % 0.0 mm
22:16 7.6 °C 1.2 °C 1017.8 hPa Calm     64 % 0.0 mm
22:21 7.5 °C 1.1 °C 1017.8 hPa Calm     64 % 0.0 mm
22:26 7.5 °C 1.3 °C 1017.8 hPa NE 1.9 km/h   65 % 0.0 mm
22:31 7.1 °C 0.7 °C 1017.8 hPa Calm     64 % 0.0 mm
22:36 6.9 °C 0.6 °C 1017.8 hPa SW 1.9 km/h 1.9 km/h 64 % 0.0 mm
22:41 6.8 °C 0.7 °C 1018.8 hPa Calm     65 % 0.0 mm
22:46 6.8 °C 0.7 °C 1018.8 hPa Calm     65 % 0.0 mm
22:51 6.7 °C 0.6 °C 1018.8 hPa WNW 2.3 km/h   65 % 0.0 mm
22:56 6.6 °C 0.7 °C 1017.8 hPa Calm     66 % 0.0 mm
23:01 6.6 °C 0.7 °C 1017.8 hPa Calm     66 % 0.0 mm
23:06 6.6 °C 0.7 °C 1017.8 hPa Calm     66 % 0.0 mm
23:11 6.6 °C 0.7 °C 1018.8 hPa NW 1.9 km/h   66 % 0.0 mm
Meteo Sesrovires
Elogis d' Weather Underground - 3.25 mb

Guio original per  Jim McMurry - jmcmurry@mwt.net Adaptat per a la plantilla per  Wim van der Kuil - Leuven-Template.eu

Trobareu la nostra informacio del temps tambe a:

Weather Underground

AWEKAS